sensor_id;sensor_type;location;lat;lon;timestamp;pressure;altitude;pressure_sealevel;temperature;humidity
20037;BME280;10179;42.640;23.312;2023-03-17T00:01:10;93835.66;;;5.91;60.12
20037;BME280;10179;42.640;23.312;2023-03-17T00:03:39;93824.41;;;5.84;60.33
20037;BME280;10179;42.640;23.312;2023-03-17T00:06:09;93834.53;;;5.94;60.76
20037;BME280;10179;42.640;23.312;2023-03-17T00:08:40;93833.31;;;5.96;60.85
20037;BME280;10179;42.640;23.312;2023-03-17T00:11:11;93596.44;;;4.49;60.69
20037;BME280;10179;42.640;23.312;2023-03-17T00:13:37;93838.16;;;6.00;60.39
20037;BME280;10179;42.640;23.312;2023-03-17T00:16:05;93794.66;;;5.72;60.44
20037;BME280;10179;42.640;23.312;2023-03-17T00:18:31;93836.53;;;5.98;60.52
20037;BME280;10179;42.640;23.312;2023-03-17T00:20:59;93836.53;;;5.98;60.41
20037;BME280;10179;42.640;23.312;2023-03-17T00:23:25;93837.72;;;5.96;60.27
20037;BME280;10179;42.640;23.312;2023-03-17T00:25:51;93835.66;;;5.91;60.05
20037;BME280;10179;42.640;23.312;2023-03-17T00:28:19;93837.31;;;5.92;60.48
20037;BME280;10179;42.640;23.312;2023-03-17T00:30:46;93805.06;;;5.72;60.61
20037;BME280;10179;42.640;23.312;2023-03-17T00:33:14;93764.72;;;5.55;60.63
20037;BME280;10179;42.640;23.312;2023-03-17T00:35:41;93835.31;;;5.94;60.47
20037;BME280;10179;42.640;23.312;2023-03-17T00:38:15;93829.53;;;5.99;60.94
20037;BME280;10179;42.640;23.312;2023-03-17T00:40:40;93827.41;;;6.16;60.71
20037;BME280;10179;42.640;23.312;2023-03-17T00:43:05;93830.53;;;5.98;60.19
20037;BME280;10179;42.640;23.312;2023-03-17T00:45:32;93824.19;;;5.86;60.60
20037;BME280;10179;42.640;23.312;2023-03-17T00:47:58;93836.47;;;5.92;60.56
20037;BME280;10179;42.640;23.312;2023-03-17T00:50:27;93832.72;;;5.94;60.76
20037;BME280;10179;42.640;23.312;2023-03-17T00:52:55;93838.53;;;5.96;60.81
20037;BME280;10179;42.640;23.312;2023-03-17T00:55:22;93825.63;;;5.88;60.55
20037;BME280;10179;42.640;23.312;2023-03-17T00:57:48;93822.59;;;5.85;60.66
20037;BME280;10179;42.640;23.312;2023-03-17T01:00:32;93836.16;;;6.02;60.88
20037;BME280;10179;42.640;23.312;2023-03-17T01:02:58;93616.81;;;4.46;60.60
20037;BME280;10179;42.640;23.312;2023-03-17T01:05:24;93851.31;;;5.91;60.72
20037;BME280;10179;42.640;23.312;2023-03-17T01:07:53;93845.75;;;5.94;60.79
20037;BME280;10179;42.640;23.312;2023-03-17T01:10:24;93852.56;;;5.95;61.01
20037;BME280;10179;42.640;23.312;2023-03-17T01:12:55;93847.97;;;5.97;60.80
20037;BME280;10179;42.640;23.312;2023-03-17T01:15:28;93848.16;;;5.96;60.60
20037;BME280;10179;42.640;23.312;2023-03-17T01:17:56;93839.47;;;5.89;60.54
20037;BME280;10179;42.640;23.312;2023-03-17T01:20:33;93837.72;;;5.96;60.69
20037;BME280;10179;42.640;23.312;2023-03-17T01:23:00;93824.78;;;5.81;60.87
20037;BME280;10179;42.640;23.312;2023-03-17T01:25:27;93848.94;;;5.96;60.63
20037;BME280;10179;42.640;23.312;2023-03-17T01:27:54;93853.00;;;5.99;60.85
20037;BME280;10179;42.640;23.312;2023-03-17T01:30:25;93845.00;;;6.01;60.96
20037;BME280;10179;42.640;23.312;2023-03-17T01:32:53;93848.19;;;6.03;60.97
20037;BME280;10179;42.640;23.312;2023-03-17T01:35:19;93851.59;;;6.03;60.92
20037;BME280;10179;42.640;23.312;2023-03-17T01:37:45;93843.28;;;5.86;60.50
20037;BME280;10179;42.640;23.312;2023-03-17T01:40:14;93856.44;;;6.06;60.48
20037;BME280;10179;42.640;23.312;2023-03-17T01:42:46;93839.78;;;6.01;60.94
20037;BME280;10179;42.640;23.312;2023-03-17T01:48:16;93807.53;;;5.80;60.97
20037;BME280;10179;42.640;23.312;2023-03-17T01:50:43;93842.56;;;5.99;60.79
20037;BME280;10179;42.640;23.312;2023-03-17T01:53:10;93825.25;;;5.91;61.25
20037;BME280;10179;42.640;23.312;2023-03-17T01:55:37;93836.31;;;5.93;61.00
20037;BME280;10179;42.640;23.312;2023-03-17T01:58:02;93831.13;;;6.00;61.14
20037;BME280;10179;42.640;23.312;2023-03-17T02:00:28;93866.38;;;6.24;60.96
20037;BME280;10179;42.640;23.312;2023-03-17T02:02:55;93861.78;;;6.26;61.24
20037;BME280;10179;42.640;23.312;2023-03-17T02:05:24;93871.44;;;6.32;60.83
20037;BME280;10179;42.640;23.312;2023-03-17T02:07:51;93863.81;;;6.37;61.21
20037;BME280;10179;42.640;23.312;2023-03-17T02:10:18;93792.03;;;6.00;60.92
20037;BME280;10179;42.640;23.312;2023-03-17T02:12:47;93869.72;;;6.53;61.28
20037;BME280;10179;42.640;23.312;2023-03-17T02:15:16;93861.69;;;6.54;60.73
20037;BME280;10179;42.640;23.312;2023-03-17T02:17:42;93843.59;;;6.39;60.63
20037;BME280;10179;42.640;23.312;2023-03-17T02:22:53;93811.78;;;6.16;60.17
20037;BME280;10179;42.640;23.312;2023-03-17T02:25:21;93638.44;;;5.09;59.88
20037;BME280;10179;42.640;23.312;2023-03-17T02:27:51;93843.50;;;6.26;59.72
20037;BME280;10179;42.640;23.312;2023-03-17T02:30:21;93868.44;;;6.35;60.21
20037;BME280;10179;42.640;23.312;2023-03-17T02:32:46;93874.88;;;6.39;60.19
20037;BME280;10179;42.640;23.312;2023-03-17T02:35:12;93886.09;;;6.33;59.61
20037;BME280;10179;42.640;23.312;2023-03-17T02:37:38;93884.88;;;6.29;59.60
20037;BME280;10179;42.640;23.312;2023-03-17T02:40:05;93889.66;;;6.26;59.87
20037;BME280;10179;42.640;23.312;2023-03-17T02:42:32;93845.75;;;5.94;60.08
20037;BME280;10179;42.640;23.312;2023-03-17T02:44:58;93880.78;;;6.20;60.23
20037;BME280;10179;42.640;23.312;2023-03-17T02:47:24;93865.06;;;6.07;59.95
20037;BME280;10179;42.640;23.312;2023-03-17T02:49:50;93899.50;;;6.30;60.05
20037;BME280;10179;42.640;23.312;2023-03-17T02:52:16;93902.34;;;6.35;60.14
20037;BME280;10179;42.640;23.312;2023-03-17T02:54:41;93862.69;;;6.12;59.82
20037;BME280;10179;42.640;23.312;2023-03-17T02:57:07;93814.56;;;5.80;60.25
20037;BME280;10179;42.640;23.312;2023-03-17T02:59:33;93901.34;;;6.36;60.17
20037;BME280;10179;42.640;23.312;2023-03-17T03:01:59;93901.78;;;6.40;60.29
20037;BME280;10179;42.640;23.312;2023-03-17T03:04:25;93904.19;;;6.41;60.45
20037;BME280;10179;42.640;23.312;2023-03-17T03:06:51;93892.13;;;6.40;60.23
20037;BME280;10179;42.640;23.312;2023-03-17T03:09:17;93880.88;;;6.33;60.26
20037;BME280;10179;42.640;23.312;2023-03-17T03:11:43;93903.25;;;6.56;60.32
20037;BME280;10179;42.640;23.312;2023-03-17T03:14:09;93907.91;;;6.60;60.08
20037;BME280;10179;42.640;23.312;2023-03-17T03:16:35;93905.88;;;6.62;60.03
20037;BME280;10179;42.640;23.312;2023-03-17T03:19:01;93905.50;;;6.65;60.35
20037;BME280;10179;42.640;23.312;2023-03-17T03:21:27;93897.09;;;6.63;59.87
20037;BME280;10179;42.640;23.312;2023-03-17T03:23:52;93908.34;;;6.71;59.57
20037;BME280;10179;42.640;23.312;2023-03-17T03:26:17;93918.38;;;6.67;59.30
20037;BME280;10179;42.640;23.312;2023-03-17T03:28:43;93874.06;;;6.32;59.25
20037;BME280;10179;42.640;23.312;2023-03-17T03:31:09;93894.97;;;6.45;59.25
20037;BME280;10179;42.640;23.312;2023-03-17T03:33:35;93886.09;;;6.33;59.75
20037;BME280;10179;42.640;23.312;2023-03-17T03:36:01;93918.47;;;6.52;59.42
20037;BME280;10179;42.640;23.312;2023-03-17T03:38:27;93923.91;;;6.51;59.54
20037;BME280;10179;42.640;23.312;2023-03-17T03:40:53;93923.06;;;6.43;59.93
20037;BME280;10179;42.640;23.312;2023-03-17T03:43:18;93847.59;;;6.01;59.88
20037;BME280;10179;42.640;23.312;2023-03-17T03:45:44;93932.94;;;6.55;59.75
20037;BME280;10179;42.640;23.312;2023-03-17T03:48:10;93914.00;;;6.39;59.55
20037;BME280;10179;42.640;23.312;2023-03-17T03:50:36;93933.16;;;6.53;59.64
20037;BME280;10179;42.640;23.312;2023-03-17T03:53:01;93935.56;;;6.55;59.72
20037;BME280;10179;42.640;23.312;2023-03-17T03:55:27;93938.53;;;6.52;59.37
20037;BME280;10179;42.640;23.312;2023-03-17T03:57:52;93943.16;;;6.50;59.26
20037;BME280;10179;42.640;23.312;2023-03-17T04:00:18;93934.09;;;6.39;59.32
20037;BME280;10179;42.640;23.312;2023-03-17T04:02:44;93942.75;;;6.46;59.79
20037;BME280;10179;42.640;23.312;2023-03-17T04:05:14;93920.75;;;6.27;59.39
20037;BME280;10179;42.640;23.312;2023-03-17T04:07:40;93945.53;;;6.44;59.44
20037;BME280;10179;42.640;23.312;2023-03-17T04:10:08;93945.50;;;6.38;59.51
20037;BME280;10179;42.640;23.312;2023-03-17T04:12:34;93949.16;;;6.43;60.05
20037;BME280;10179;42.640;23.312;2023-03-17T04:14:59;93955.38;;;6.42;59.69
20037;BME280;10179;42.640;23.312;2023-03-17T04:17:25;93916.50;;;6.19;59.81
20037;BME280;10179;42.640;23.312;2023-03-17T04:19:50;93892.38;;;6.11;59.75
20037;BME280;10179;42.640;23.312;2023-03-17T04:22:16;93948.78;;;6.47;60.01
20037;BME280;10179;42.640;23.312;2023-03-17T04:24:42;93957.56;;;6.45;59.56
20037;BME280;10179;42.640;23.312;2023-03-17T04:27:07;93963.19;;;6.42;59.32
20037;BME280;10179;42.640;23.312;2023-03-17T04:29:33;93932.50;;;6.16;59.33
20037;BME280;10179;42.640;23.312;2023-03-17T04:31:59;93913.88;;;5.91;59.48
20037;BME280;10179;42.640;23.312;2023-03-17T04:34:25;93971.31;;;6.26;59.54
20037;BME280;10179;42.640;23.312;2023-03-17T04:36:51;93956.78;;;6.17;59.70
20037;BME280;10179;42.640;23.312;2023-03-17T04:39:17;93970.50;;;6.26;59.94
20037;BME280;10179;42.640;23.312;2023-03-17T04:41:43;93973.91;;;6.26;59.87
20037;BME280;10179;42.640;23.312;2023-03-17T04:44:08;93979.94;;;6.27;59.91
20037;BME280;10179;42.640;23.312;2023-03-17T04:46:34;93981.97;;;6.31;59.86
20037;BME280;10179;42.640;23.312;2023-03-17T04:48:59;93757.50;;;4.79;60.14
20037;BME280;10179;42.640;23.312;2023-03-17T04:51:25;93893.72;;;5.79;60.24
20037;BME280;10179;42.640;23.312;2023-03-17T04:53:50;93982.63;;;6.40;59.99
20037;BME280;10179;42.640;23.312;2023-03-17T04:56:16;93988.44;;;6.35;60.06
20037;BME280;10179;42.640;23.312;2023-03-17T04:58:42;93954.81;;;6.19;60.05
20037;BME280;10179;42.640;23.312;2023-03-17T05:01:07;93968.50;;;6.28;59.90
20037;BME280;10179;42.640;23.312;2023-03-17T05:03:33;93904.44;;;5.90;59.75
20037;BME280;10179;42.640;23.312;2023-03-17T05:05:59;93992.50;;;6.44;60.17
20037;BME280;10179;42.640;23.312;2023-03-17T05:08:26;93962.69;;;6.26;59.86
20037;BME280;10179;42.640;23.312;2023-03-17T05:10:56;93984.81;;;6.36;60.05
20037;BME280;10179;42.640;23.312;2023-03-17T05:13:22;94002.16;;;6.51;60.14
20037;BME280;10179;42.640;23.312;2023-03-17T05:15:48;93959.06;;;6.27;59.99
20037;BME280;10179;42.640;23.312;2023-03-17T05:18:15;94006.00;;;6.55;59.74
20037;BME280;10179;42.640;23.312;2023-03-17T05:20:41;93965.84;;;6.21;59.39
20037;BME280;10179;42.640;23.312;2023-03-17T05:23:07;94019.44;;;6.52;59.54
20037;BME280;10179;42.640;23.312;2023-03-17T05:25:32;94018.63;;;6.51;59.68
20037;BME280;10179;42.640;23.312;2023-03-17T05:27:58;94015.22;;;6.51;59.90
20037;BME280;10179;42.640;23.312;2023-03-17T05:30:24;94027.25;;;6.52;59.44
20037;BME280;10179;42.640;23.312;2023-03-17T05:32:52;94029.50;;;6.55;59.74
20037;BME280;10179;42.640;23.312;2023-03-17T05:35:18;94032.72;;;6.57;60.02
20037;BME280;10179;42.640;23.312;2023-03-17T05:37:43;94031.72;;;6.58;59.70
20037;BME280;10179;42.640;23.312;2023-03-17T05:40:10;94009.75;;;6.45;59.74
20037;BME280;10179;42.640;23.312;2023-03-17T05:42:37;94006.91;;;6.40;59.32
20037;BME280;10179;42.640;23.312;2023-03-17T05:45:03;94032.31;;;6.60;59.51
20037;BME280;10179;42.640;23.312;2023-03-17T05:47:30;94028.72;;;6.61;59.65
20037;BME280;10179;42.640;23.312;2023-03-17T05:49:56;93989.19;;;6.29;59.67
20037;BME280;10179;42.640;23.312;2023-03-17T05:52:21;94040.41;;;6.65;59.84
20037;BME280;10179;42.640;23.312;2023-03-17T05:54:47;94033.19;;;6.67;59.84
20037;BME280;10179;42.640;23.312;2023-03-17T05:57:14;94040.81;;;6.68;59.56
20037;BME280;10179;42.640;23.312;2023-03-17T05:59:40;93943.66;;;6.04;59.80
20037;BME280;10179;42.640;23.312;2023-03-17T06:02:07;94036.78;;;6.66;59.95
20037;BME280;10179;42.640;23.312;2023-03-17T06:04:32;94026.13;;;6.61;59.66
20037;BME280;10179;42.640;23.312;2023-03-17T06:06:58;94058.56;;;6.80;59.47
20037;BME280;10179;42.640;23.312;2023-03-17T06:09:23;93993.66;;;6.35;59.64
20037;BME280;10179;42.640;23.312;2023-03-17T06:11:49;94052.06;;;6.69;59.24
20037;BME280;10179;42.640;23.312;2023-03-17T06:14:14;94075.66;;;6.82;59.08
20037;BME280;10179;42.640;23.312;2023-03-17T06:16:39;94045.63;;;6.65;59.41
20037;BME280;10179;42.640;23.312;2023-03-17T06:19:05;94016.13;;;6.36;59.14
20037;BME280;10179;42.640;23.312;2023-03-17T06:21:31;94090.31;;;6.83;59.00
20037;BME280;10179;42.640;23.312;2023-03-17T06:23:56;94071.56;;;6.73;59.37
20037;BME280;10179;42.640;23.312;2023-03-17T06:26:21;94039.13;;;6.54;59.66
20037;BME280;10179;42.640;23.312;2023-03-17T06:28:47;94096.81;;;6.94;59.59
20037;BME280;10179;42.640;23.312;2023-03-17T06:31:12;94095.63;;;6.97;59.48
20037;BME280;10179;42.640;23.312;2023-03-17T06:33:37;94095.25;;;7.00;59.55
20037;BME280;10179;42.640;23.312;2023-03-17T06:36:04;93970.31;;;6.27;59.50
20037;BME280;10179;42.640;23.312;2023-03-17T06:38:29;94015.88;;;6.59;59.48
20037;BME280;10179;42.640;23.312;2023-03-17T06:40:54;94098.53;;;7.15;59.19
20037;BME280;10179;42.640;23.312;2023-03-17T06:43:20;94073.59;;;7.06;59.13
20037;BME280;10179;42.640;23.312;2023-03-17T06:45:46;94036.13;;;6.85;58.98
20037;BME280;10179;42.640;23.312;2023-03-17T06:48:11;94072.41;;;7.15;58.85
20037;BME280;10179;42.640;23.312;2023-03-17T06:50:37;94101.66;;;7.32;58.97
20037;BME280;10179;42.640;23.312;2023-03-17T06:53:03;94055.31;;;7.06;58.99
20037;BME280;10179;42.640;23.312;2023-03-17T06:55:28;94104.91;;;7.40;59.12
20037;BME280;10179;42.640;23.312;2023-03-17T06:57:54;94104.34;;;7.45;58.92
20037;BME280;10179;42.640;23.312;2023-03-17T07:00:20;94104.50;;;7.44;58.60
20037;BME280;10179;42.640;23.312;2023-03-17T07:02:47;94107.38;;;7.49;58.47
20037;BME280;10179;42.640;23.312;2023-03-17T07:05:14;94115.22;;;7.49;58.51
20037;BME280;10179;42.640;23.312;2023-03-17T07:07:40;94064.63;;;7.22;58.39
20037;BME280;10179;42.640;23.312;2023-03-17T07:10:06;94113.19;;;7.51;58.39
20037;BME280;10179;42.640;23.312;2023-03-17T07:12:34;94076.13;;;7.27;58.10
20037;BME280;10179;42.640;23.312;2023-03-17T07:15:00;94095.38;;;7.26;58.15
20037;BME280;10179;42.640;23.312;2023-03-17T07:17:25;94121.66;;;7.53;58.27
20037;BME280;10179;42.640;23.312;2023-03-17T07:19:51;94122.47;;;7.53;58.15
20037;BME280;10179;42.640;23.312;2023-03-17T07:22:16;94013.59;;;6.84;58.22
20037;BME280;10179;42.640;23.312;2023-03-17T07:24:42;94091.81;;;7.34;57.95
20037;BME280;10179;42.640;23.312;2023-03-17T07:27:08;94098.84;;;7.33;58.15
20037;BME280;10179;42.640;23.312;2023-03-17T07:29:33;94137.34;;;7.53;57.72
20037;BME280;10179;42.640;23.312;2023-03-17T07:31:59;94089.81;;;7.36;57.93
20037;BME280;10179;42.640;23.312;2023-03-17T07:34:25;94050.31;;;7.11;58.29
20037;BME280;10179;42.640;23.312;2023-03-17T07:36:51;94077.94;;;7.33;58.08
20037;BME280;10179;42.640;23.312;2023-03-17T07:39:19;93768.78;;;5.36;58.05
20037;BME280;10179;42.640;23.312;2023-03-17T07:41:45;94119.09;;;7.66;57.64
20037;BME280;10179;42.640;23.312;2023-03-17T07:44:12;94112.41;;;7.57;57.90
20037;BME280;10179;42.640;23.312;2023-03-17T07:46:37;94059.81;;;7.25;57.47
20037;BME280;10179;42.640;23.312;2023-03-17T07:49:03;94135.63;;;7.73;57.45
20037;BME280;10179;42.640;23.312;2023-03-17T07:51:29;94108.03;;;7.64;57.67
20037;BME280;10179;42.640;23.312;2023-03-17T07:53:54;94129.81;;;7.84;57.87
20037;BME280;10179;42.640;23.312;2023-03-17T07:56:28;94139.50;;;7.91;57.66
20037;BME280;10179;42.640;23.312;2023-03-17T07:58:54;94133.91;;;7.94;57.83
20037;BME280;10179;42.640;23.312;2023-03-17T08:01:21;94130.88;;;7.90;57.12
20037;BME280;10179;42.640;23.312;2023-03-17T08:03:47;94141.31;;;7.97;56.99
20037;BME280;10179;42.640;23.312;2023-03-17T08:06:13;94142.75;;;7.99;57.07
20037;BME280;10179;42.640;23.312;2023-03-17T08:08:38;94150.03;;;8.04;57.09
20037;BME280;10179;42.640;23.312;2023-03-17T08:11:04;94140.78;;;8.08;57.12
20037;BME280;10179;42.640;23.312;2023-03-17T08:13:30;94130.31;;;8.08;57.36
20037;BME280;10179;42.640;23.312;2023-03-17T08:15:56;94149.06;;;8.18;57.46
20037;BME280;10179;42.640;23.312;2023-03-17T08:18:23;94137.59;;;8.19;56.95
20037;BME280;10179;42.640;23.312;2023-03-17T08:20:49;94142.44;;;8.22;56.93
20037;BME280;10179;42.640;23.312;2023-03-17T08:23:15;94141.03;;;8.26;56.79
20037;BME280;10179;42.640;23.312;2023-03-17T08:25:42;94143.63;;;8.26;57.03
20037;BME280;10179;42.640;23.312;2023-03-17T08:28:07;94132.75;;;8.23;56.73
20037;BME280;10179;42.640;23.312;2023-03-17T08:30:33;94136.97;;;8.24;56.92
20037;BME280;10179;42.640;23.312;2023-03-17T08:32:59;94144.47;;;8.33;56.71
20037;BME280;10179;42.640;23.312;2023-03-17T08:35:24;94147.31;;;8.39;56.92
20037;BME280;10179;42.640;23.312;2023-03-17T08:37:50;94150.53;;;8.41;56.57
20037;BME280;10179;42.640;23.312;2023-03-17T08:40:17;94116.25;;;8.22;56.60
20037;BME280;10179;42.640;23.312;2023-03-17T08:42:45;94146.91;;;8.42;56.54
20037;BME280;10179;42.640;23.312;2023-03-17T08:45:12;94140.88;;;8.48;56.59
20037;BME280;10179;42.640;23.312;2023-03-17T08:47:38;94144.13;;;8.50;56.46
20037;BME280;10179;42.640;23.312;2023-03-17T08:50:07;94137.25;;;8.49;56.31
20037;BME280;10179;42.640;23.312;2023-03-17T08:52:34;94133.66;;;8.50;55.84
20037;BME280;10179;42.640;23.312;2023-03-17T08:55:00;94087.28;;;8.24;55.92
20037;BME280;10179;42.640;23.312;2023-03-17T08:57:25;94140.69;;;8.56;56.21
20037;BME280;10179;42.640;23.312;2023-03-17T08:59:52;94089.72;;;8.32;56.08
20037;BME280;10179;42.640;23.312;2023-03-17T09:02:18;94143.31;;;8.69;56.12
20037;BME280;10179;42.640;23.312;2023-03-17T09:04:43;94158.44;;;8.80;55.70
20037;BME280;10179;42.640;23.312;2023-03-17T09:07:09;94153.81;;;8.82;55.34
20037;BME280;10179;42.640;23.312;2023-03-17T09:09:35;94133.25;;;8.73;55.54
20037;BME280;10179;42.640;23.312;2023-03-17T09:12:02;94150.56;;;8.87;55.47
20037;BME280;10179;42.640;23.312;2023-03-17T09:14:29;94155.00;;;8.93;55.63
20037;BME280;10179;42.640;23.312;2023-03-17T09:16:55;94106.47;;;8.71;55.60
20037;BME280;10179;42.640;23.312;2023-03-17T09:19:21;94145.97;;;8.96;54.67
20037;BME280;10179;42.640;23.312;2023-03-17T09:21:48;94145.75;;;8.97;54.04
20037;BME280;10179;42.640;23.312;2023-03-17T09:24:13;94109.09;;;8.64;53.44
20037;BME280;10179;42.640;23.312;2023-03-17T09:26:39;94117.94;;;8.70;53.74
20037;BME280;10179;42.640;23.312;2023-03-17T09:29:05;94150.19;;;8.90;54.08
20037;BME280;10179;42.640;23.312;2023-03-17T09:31:32;94162.25;;;8.98;53.77
20037;BME280;10179;42.640;23.312;2023-03-17T09:33:57;94155.22;;;9.05;53.78
20037;BME280;10179;42.640;23.312;2023-03-17T09:36:23;94133.03;;;9.01;53.71
20037;BME280;10179;42.640;23.312;2023-03-17T09:38:48;94090.56;;;8.72;52.82
20037;BME280;10179;42.640;23.312;2023-03-17T09:46:47;94079.28;;;8.78;53.21
20037;BME280;10179;42.640;23.312;2023-03-17T09:52:31;94161.84;;;9.41;52.07
20037;BME280;10179;42.640;23.312;2023-03-17T09:54:59;94115.72;;;9.06;51.89
20037;BME280;10179;42.640;23.312;2023-03-17T09:57:31;94161.63;;;9.49;52.24
20037;BME280;10179;42.640;23.312;2023-03-17T10:00:24;94162.19;;;9.51;51.58
20037;BME280;10179;42.640;23.312;2023-03-17T10:02:51;94167.38;;;9.77;52.71
20037;BME280;10179;42.640;23.312;2023-03-17T10:05:21;94166.22;;;9.60;51.31
20037;BME280;10179;42.640;23.312;2023-03-17T10:10:52;94177.09;;;9.70;50.48
20037;BME280;10179;42.640;23.312;2023-03-17T10:16:21;94169.47;;;9.62;48.06
20037;BME280;10179;42.640;23.312;2023-03-17T10:18:56;94172.47;;;9.59;47.73
20037;BME280;10179;42.640;23.312;2023-03-17T10:21:26;94169.00;;;9.78;49.57
20037;BME280;10179;42.640;23.312;2023-03-17T10:23:53;94102.78;;;9.18;48.56
20037;BME280;10179;42.640;23.312;2023-03-17T10:26:29;94171.84;;;9.70;48.92
20037;BME280;10179;42.640;23.312;2023-03-17T10:28:55;94131.16;;;9.48;48.42
20037;BME280;10179;42.640;23.312;2023-03-17T10:31:32;94165.38;;;9.79;48.63
20037;BME280;10179;42.640;23.312;2023-03-17T10:34:14;94153.22;;;9.85;48.97
20037;BME280;10179;42.640;23.312;2023-03-17T10:36:52;94164.72;;;9.91;49.18
20037;BME280;10179;42.640;23.312;2023-03-17T10:39:20;94158.47;;;9.92;47.33
20037;BME280;10179;42.640;23.312;2023-03-17T10:41:57;94165.50;;;9.98;48.05
20037;BME280;10179;42.640;23.312;2023-03-17T10:44:42;94155.78;;;10.05;48.36
20037;BME280;10179;42.640;23.312;2023-03-17T10:47:47;94155.13;;;10.16;48.70
20037;BME280;10179;42.640;23.312;2023-03-17T10:50:32;94156.16;;;10.15;48.21
20037;BME280;10179;42.640;23.312;2023-03-17T10:53:04;94150.69;;;10.10;46.79
20037;BME280;10179;42.640;23.312;2023-03-17T10:55:41;94155.53;;;10.13;47.71
20037;BME280;10179;42.640;23.312;2023-03-17T11:00:35;94123.22;;;10.19;46.96
20037;BME280;10179;42.640;23.312;2023-03-17T11:03:22;94126.22;;;10.30;47.38
20037;BME280;10179;42.640;23.312;2023-03-17T11:06:04;94116.75;;;10.29;47.19
20037;BME280;10179;42.640;23.312;2023-03-17T11:08:32;94116.13;;;10.26;46.06
20037;BME280;10179;42.640;23.312;2023-03-17T11:11:04;94120.28;;;10.41;46.86
20037;BME280;10179;42.640;23.312;2023-03-17T11:13:31;93926.78;;;9.28;46.43
20037;BME280;10179;42.640;23.312;2023-03-17T11:16:07;94114.13;;;10.60;47.21
20037;BME280;10179;42.640;23.312;2023-03-17T11:18:36;94123.38;;;10.63;45.79
20037;BME280;10179;42.640;23.312;2023-03-17T11:21:09;94102.72;;;10.66;45.42
20037;BME280;10179;42.640;23.312;2023-03-17T11:35:12;94109.44;;;10.87;41.64
20037;BME280;10179;42.640;23.312;2023-03-17T11:40:34;94105.34;;;10.91;41.19
20037;BME280;10179;42.640;23.312;2023-03-17T11:56:16;94048.69;;;11.02;40.94
20037;BME280;10179;42.640;23.312;2023-03-17T11:58:49;94103.84;;;11.45;40.62
20037;BME280;10179;42.640;23.312;2023-03-17T12:01:31;94104.34;;;11.54;40.13
20037;BME280;10179;42.640;23.312;2023-03-17T12:06:51;94099.75;;;11.68;40.49
20037;BME280;10179;42.640;23.312;2023-03-17T12:09:36;94094.41;;;11.75;40.60
20037;BME280;10179;42.640;23.312;2023-03-17T12:12:03;94094.22;;;11.76;40.69
20037;BME280;10179;42.640;23.312;2023-03-17T12:14:34;94101.50;;;11.92;40.45
20037;BME280;10179;42.640;23.312;2023-03-17T12:20:11;94084.22;;;12.15;39.93
20037;BME280;10179;42.640;23.312;2023-03-17T12:22:54;94078.72;;;12.16;39.60
20037;BME280;10179;42.640;23.312;2023-03-17T12:28:16;94058.78;;;12.09;39.38
20037;BME280;10179;42.640;23.312;2023-03-17T12:31:09;94063.53;;;12.18;39.39
20037;BME280;10179;42.640;23.312;2023-03-17T12:34:05;94079.78;;;12.27;39.32
20037;BME280;10179;42.640;23.312;2023-03-17T12:36:34;94011.81;;;11.76;39.42
20037;BME280;10179;42.640;23.312;2023-03-17T12:39:12;94063.53;;;12.18;39.48
20037;BME280;10179;42.640;23.312;2023-03-17T12:41:54;94076.63;;;12.37;39.20
20037;BME280;10179;42.640;23.312;2023-03-17T12:55:12;94083.41;;;12.56;38.47
20037;BME280;10179;42.640;23.312;2023-03-17T12:57:44;94083.22;;;12.58;38.68
20037;BME280;10179;42.640;23.312;2023-03-17T13:00:22;94075.66;;;12.61;38.23
20037;BME280;10179;42.640;23.312;2023-03-17T13:03:10;94075.41;;;12.51;36.91
20037;BME280;10179;42.640;23.312;2023-03-17T13:05:44;94075.56;;;12.26;36.68
20037;BME280;10179;42.640;23.312;2023-03-17T13:08:14;94083.44;;;12.14;36.66
20037;BME280;10179;42.640;23.312;2023-03-17T13:10:45;94070.59;;;11.88;36.58
20037;BME280;10179;42.640;23.312;2023-03-17T13:15:55;94087.00;;;11.90;37.35
20037;BME280;10179;42.640;23.312;2023-03-17T13:18:44;94077.63;;;11.94;37.44
20037;BME280;10179;42.640;23.312;2023-03-17T13:21:14;94089.03;;;11.88;37.65
20037;BME280;10179;42.640;23.312;2023-03-17T13:23:55;94079.22;;;11.95;37.89
20037;BME280;10179;42.640;23.312;2023-03-17T13:35:11;94075.31;;;11.79;37.92
20037;BME280;10179;42.640;23.312;2023-03-17T13:37:52;94076.09;;;11.86;37.98
20037;BME280;10179;42.640;23.312;2023-03-17T13:40:33;94084.03;;;11.80;37.83
20037;BME280;10179;42.640;23.312;2023-03-17T13:43:11;94074.41;;;11.74;38.09
20037;BME280;10179;42.640;23.312;2023-03-17T13:45:42;94074.25;;;11.68;37.22
20037;BME280;10179;42.640;23.312;2023-03-17T13:48:31;94036.94;;;11.41;37.52
20037;BME280;10179;42.640;23.312;2023-03-17T13:53:28;94074.84;;;11.52;37.96
20037;BME280;10179;42.640;23.312;2023-03-17T13:56:23;94069.59;;;11.52;37.84
20037;BME280;10179;42.640;23.312;2023-03-17T13:59:03;94085.06;;;11.42;37.77
20037;BME280;10179;42.640;23.312;2023-03-17T14:01:59;94085.94;;;11.36;38.24
20037;BME280;10179;42.640;23.312;2023-03-17T14:04:30;94079.34;;;11.27;38.38
20037;BME280;10179;42.640;23.312;2023-03-17T14:07:05;94086.06;;;11.22;38.23
20037;BME280;10179;42.640;23.312;2023-03-17T14:09:38;94080.50;;;11.12;38.31
20037;BME280;10179;42.640;23.312;2023-03-17T14:18:08;94089.97;;;10.95;38.46
20037;BME280;10179;42.640;23.312;2023-03-17T14:20:38;94070.69;;;10.83;38.76
20037;BME280;10179;42.640;23.312;2023-03-17T14:23:03;94092.50;;;10.83;39.02
20037;BME280;10179;42.640;23.312;2023-03-17T14:25:33;94092.13;;;10.80;40.00
20037;BME280;10179;42.640;23.312;2023-03-17T14:28:03;94078.09;;;10.67;40.34
20037;BME280;10179;42.640;23.312;2023-03-17T14:30:31;94091.22;;;10.67;40.65
20037;BME280;10179;42.640;23.312;2023-03-17T14:33:30;94092.03;;;10.68;40.78
20037;BME280;10179;42.640;23.312;2023-03-17T14:36:01;94087.09;;;10.53;40.86